Shinsei Maru — JD3498 — position and weather

sailwx.info

Track history (hours):
 
Tides and Currents Weather Stations Pressure Air Temp Water Temp Dewpoint Dewpoint Depression Visibility Wind Speed Wind Dir Waves Ship Positions

Shinsei Maru

Last reported at 2018-Jun-22 13:13 UTC. Time now 2018-Jun-25 05:50 UTC.
Position N 34°24' E 133°55'.

Length 79 m; draft 5 m.

Type: Cargo ship. MMSI: 431004315.

Date/timePositionNaut miles runAvg speedWind from/ knotsBaromVisibWave heightAir tempDewpointWater temp
2018-Jun-22 13:13N 34°24' E 133°55'312.7
2018-Jun-22 12:59N 34°25' E 133°58'611.9
2018-Jun-22 12:30N 34°27' E 134°05'612.1
2018-Jun-22 12:01N 34°25' E 134°12'612.5
2018-Jun-22 11:30N 34°24' E 134°19'613.1
2018-Jun-22 11:01N 34°22' E 134°27'713.3
2018-Jun-22 10:30N 34°19' E 134°34'712.1
2018-Jun-22 09:55N 34°13' E 134°40'1012.9
2018-Jun-22 09:11N 34°04' E 134°42'413.4
2018-Jun-22 08:55N 34°01' E 134°43'712.2
2018-Jun-22 08:18N 33°53' E 134°43'4 0.5
2018-Jun-21 23:34N 33°57' E 134°44'314.4
2018-Jun-21 23:20N 34°00' E 134°43'514.4
2018-Jun-21 23:00N 34°05' E 134°42'714.5
2018-Jun-21 22:30N 34°12' E 134°40'714.6
2018-Jun-21 22:00N 34°17' E 134°33'714.1
2018-Jun-21 21:31N 34°19' E 134°26'713.9
2018-Jun-21 21:01N 34°22' E 134°18'  
2018-Jun-18 08:42N 34°25' E 134°20'412.4
2018-Jun-18 08:23N 34°26' E 134°24'512.6
2018-Jun-18 07:59N 34°28' E 134°30'612.6
2018-Jun-18 07:30N 34°30' E 134°37'612.6
2018-Jun-18 07:00N 34°33' E 134°44'612.6
2018-Jun-18 06:30N 34°35' E 134°51'612.0
2018-Jun-18 06:00N 34°37' E 134°58'611.8
2018-Jun-18 05:30N 34°36' E 135°05'713.5
2018-Jun-18 05:00N 34°37' E 135°13'5 9.8
2018-Jun-18 04:30N 34°42' E 135°15'1 1.1
2018-Jun-18 03:59N 34°42' E 135°14'0 0.0
2018-Jun-18 03:29N 34°42' E 135°14'0 0.0
2018-Jun-18 03:00N 34°42' E 135°14'0 0.0
2018-Jun-18 02:29N 34°42' E 135°14'0 0.0
2018-Jun-18 02:00N 34°42' E 135°14'0 0.0
2018-Jun-18 01:30N 34°42' E 135°14'0 0.0
2018-Jun-18 01:00N 34°42' E 135°14'0 0.3
2018-Jun-18 00:30N 34°42' E 135°14'4 8.1
2018-Jun-18 00:00N 34°38' E 135°16'611.7
2018-Jun-17 23:30N 34°35' E 135°10'713.2
2018-Jun-17 23:00N 34°36' E 135°02'612.7
2018-Jun-17 22:30N 34°35' E 134°55'713.9
2018-Jun-17 21:59N 34°32' E 134°47'613.7
2018-Jun-17 21:30N 34°30' E 134°40'713.7
2018-Jun-17 21:00N 34°27' E 134°32'713.9
2018-Jun-17 20:29N 34°24' E 134°24'  
Track history (hours):
 
Tides and Currents Weather Stations Pressure Air Temp Water Temp Dewpoint Dewpoint Depression Visibility Wind Speed Wind Dir Waves Ship Positions

Shinsei Maru

Last reported at 2018-Jun-22 13:13 UTC. Time now 2018-Jun-25 05:50 UTC.
Position N 34°24' E 133°55'.

Length 79 m; draft 5 m.

Type: Cargo ship. MMSI: 431004315.

Date/timePositionNaut miles runAvg speedWind from/ knotsBaromVisibWave heightAir tempDewpointWater temp
2018-Jun-22 13:13N 34°24' E 133°55'312.7
2018-Jun-22 12:59N 34°25' E 133°58'611.9
2018-Jun-22 12:30N 34°27' E 134°05'612.1
2018-Jun-22 12:01N 34°25' E 134°12'612.5
2018-Jun-22 11:30N 34°24' E 134°19'613.1
2018-Jun-22 11:01N 34°22' E 134°27'713.3
2018-Jun-22 10:30N 34°19' E 134°34'712.1
2018-Jun-22 09:55N 34°13' E 134°40'1012.9
2018-Jun-22 09:11N 34°04' E 134°42'413.4
2018-Jun-22 08:55N 34°01' E 134°43'712.2
2018-Jun-22 08:18N 33°53' E 134°43'4 0.5
2018-Jun-21 23:34N 33°57' E 134°44'314.4
2018-Jun-21 23:20N 34°00' E 134°43'514.4
2018-Jun-21 23:00N 34°05' E 134°42'714.5
2018-Jun-21 22:30N 34°12' E 134°40'714.6
2018-Jun-21 22:00N 34°17' E 134°33'714.1
2018-Jun-21 21:31N 34°19' E 134°26'713.9
2018-Jun-21 21:01N 34°22' E 134°18'  
2018-Jun-18 08:42N 34°25' E 134°20'412.4
2018-Jun-18 08:23N 34°26' E 134°24'512.6
2018-Jun-18 07:59N 34°28' E 134°30'612.6
2018-Jun-18 07:30N 34°30' E 134°37'612.6
2018-Jun-18 07:00N 34°33' E 134°44'612.6
2018-Jun-18 06:30N 34°35' E 134°51'612.0
2018-Jun-18 06:00N 34°37' E 134°58'611.8
2018-Jun-18 05:30N 34°36' E 135°05'713.5
2018-Jun-18 05:00N 34°37' E 135°13'5 9.8
2018-Jun-18 04:30N 34°42' E 135°15'1 1.1
2018-Jun-18 03:59N 34°42' E 135°14'0 0.0
2018-Jun-18 03:29N 34°42' E 135°14'0 0.0
2018-Jun-18 03:00N 34°42' E 135°14'0 0.0
2018-Jun-18 02:29N 34°42' E 135°14'0 0.0
2018-Jun-18 02:00N 34°42' E 135°14'0 0.0
2018-Jun-18 01:30N 34°42' E 135°14'0 0.0
2018-Jun-18 01:00N 34°42' E 135°14'0 0.3
2018-Jun-18 00:30N 34°42' E 135°14'4 8.1
2018-Jun-18 00:00N 34°38' E 135°16'611.7
2018-Jun-17 23:30N 34°35' E 135°10'713.2
2018-Jun-17 23:00N 34°36' E 135°02'612.7
2018-Jun-17 22:30N 34°35' E 134°55'713.9
2018-Jun-17 21:59N 34°32' E 134°47'613.7
2018-Jun-17 21:30N 34°30' E 134°40'713.7
2018-Jun-17 21:00N 34°27' E 134°32'713.9
2018-Jun-17 20:29N 34°24' E 134°24'  

Dump ship's entire track history